createdAt,value
2022-08-22T00:02:13.875Z,51.09
2022-08-22T00:03:00.473Z,45.25
2022-08-22T00:04:47.489Z,51.08
2022-08-22T00:07:39.943Z,51.25
2022-08-22T00:10:25.286Z,50.37
2022-08-22T00:13:16.069Z,51.56
2022-08-22T00:16:00.896Z,51.37
2022-08-22T00:18:49.566Z,51.17
2022-08-22T00:21:30.286Z,51.58
2022-08-22T00:24:18.861Z,51.91
2022-08-22T00:26:49.194Z,51.14
2022-08-22T00:29:20.378Z,51.49
2022-08-22T00:31:51.524Z,51.74
2022-08-22T00:34:22.614Z,51.92
2022-08-22T00:37:07.426Z,52.89
2022-08-22T00:39:47.895Z,52.93
2022-08-22T00:42:31.374Z,52.53
2022-08-22T00:45:17.179Z,51.87
2022-08-22T00:47:58.339Z,53.00
2022-08-22T00:50:49.962Z,53.48
2022-08-22T00:53:49.750Z,53.51
2022-08-22T00:56:22.068Z,53.20
2022-08-22T00:59:25.259Z,53.61
2022-08-22T01:02:18.003Z,53.51
2022-08-22T01:05:07.703Z,53.14
2022-08-22T01:07:41.301Z,53.14
2022-08-22T01:10:30.898Z,53.88
2022-08-22T01:13:21.982Z,53.77
2022-08-22T01:15:50.802Z,53.32
2022-08-22T01:18:48.235Z,53.25
2022-08-22T01:21:24.147Z,53.37
2022-08-22T01:24:20.242Z,53.44
2022-08-22T01:27:20.970Z,54.11
2022-08-22T01:30:05.345Z,54.44
2022-08-22T01:32:43.083Z,54.22
2022-08-22T01:35:24.927Z,53.68
2022-08-22T01:38:29.026Z,52.95
2022-08-22T01:41:18.991Z,53.34
2022-08-22T01:44:03.540Z,53.65
2022-08-22T01:46:37.280Z,53.62
2022-08-22T01:49:12.721Z,54.01
2022-08-22T01:51:56.890Z,53.81
2022-08-22T01:54:54.796Z,54.60
2022-08-22T01:57:22.837Z,54.06
2022-08-22T01:59:52.787Z,54.53
2022-08-22T02:02:42.423Z,54.57
2022-08-22T02:05:21.010Z,54.42
2022-08-22T02:07:56.487Z,54.07
2022-08-22T02:10:54.475Z,54.78
2022-08-22T02:13:35.046Z,54.85
2022-08-22T02:16:16.289Z,54.70
2022-08-22T02:19:23.353Z,55.68
2022-08-22T02:22:20.675Z,55.44
2022-08-22T02:24:47.527Z,54.34
2022-08-22T02:27:46.259Z,55.14
2022-08-22T02:30:25.977Z,55.20
2022-08-22T02:32:59.392Z,56.12
2022-08-22T02:35:31.263Z,55.79
2022-08-22T02:38:16.076Z,55.80
2022-08-22T02:41:04.155Z,56.71
2022-08-22T02:43:39.402Z,56.08
2022-08-22T02:46:41.368Z,56.50
2022-08-22T02:50:03.934Z,56.78
2022-08-22T02:52:51.436Z,56.81
2022-08-22T02:55:31.292Z,56.41
2022-08-22T02:58:43.002Z,56.72
2022-08-22T03:01:27.986Z,56.99
2022-08-22T03:04:45.599Z,57.34
2022-08-22T03:07:18.278Z,56.17
2022-08-22T03:09:47.857Z,56.04
2022-08-22T03:12:30.110Z,57.63
2022-08-22T03:15:49.714Z,57.93
2022-08-22T03:18:19.390Z,56.80
2022-08-22T03:21:21.228Z,57.15
2022-08-22T03:23:52.338Z,55.89
2022-08-22T03:26:44.979Z,56.81
2022-08-22T03:29:27.306Z,56.86
2022-08-22T03:32:23.925Z,56.82
2022-08-22T03:35:01.778Z,56.94
2022-08-22T03:37:31.278Z,56.68
2022-08-22T03:40:03.921Z,56.40
2022-08-22T03:42:39.626Z,56.28
2022-08-22T03:45:22.592Z,56.46
2022-08-22T03:48:02.354Z,57.29
2022-08-22T03:50:54.719Z,57.34
2022-08-22T03:53:44.142Z,57.27
2022-08-22T03:56:34.242Z,57.92
2022-08-22T03:59:22.665Z,57.74
2022-08-22T04:02:33.402Z,57.55
2022-08-22T04:05:20.706Z,57.59
2022-08-22T04:08:13.051Z,57.63
2022-08-22T04:10:59.465Z,57.77
2022-08-22T04:13:54.464Z,57.53
2022-08-22T04:16:47.002Z,57.62
2022-08-22T04:19:21.739Z,57.09
2022-08-22T04:22:08.394Z,57.05
2022-08-22T04:24:52.259Z,57.16
2022-08-22T04:27:40.433Z,57.94
2022-08-22T04:30:30.237Z,58.18
2022-08-22T04:33:12.083Z,57.42
2022-08-22T04:36:02.759Z,57.71
2022-08-22T04:38:48.882Z,58.00
2022-08-22T04:41:20.402Z,57.65
2022-08-22T04:44:04.545Z,57.87
2022-08-22T04:46:54.670Z,58.58
2022-08-22T04:49:40.715Z,58.07
2022-08-22T04:52:34.993Z,57.94
2022-08-22T04:56:17.209Z,58.50
2022-08-22T04:58:51.581Z,58.06
2022-08-22T05:01:22.666Z,57.22
2022-08-22T05:04:02.230Z,57.64
2022-08-22T05:06:31.951Z,57.28
2022-08-22T05:09:05.637Z,57.65
2022-08-22T05:11:33.879Z,57.37
2022-08-22T05:18:36.935Z,57.67
2022-08-22T05:21:07.466Z,57.04
2022-08-22T05:23:44.391Z,57.75
2022-08-22T05:26:12.476Z,56.72
2022-08-22T05:28:51.322Z,57.14
2022-08-22T05:31:30.970Z,56.91
2022-08-22T05:34:13.737Z,56.33
2022-08-22T05:36:46.265Z,56.13
2022-08-22T05:39:19.708Z,55.97
2022-08-22T05:41:46.892Z,55.91
2022-08-22T05:44:33.516Z,56.76
2022-08-22T05:47:02.929Z,56.28
2022-08-22T05:49:38.793Z,56.57
2022-08-22T05:52:08.259Z,56.70
2022-08-22T05:54:50.139Z,57.15
2022-08-22T05:57:30.462Z,57.41
2022-08-22T06:00:12.033Z,57.53
2022-08-22T06:02:48.259Z,57.60
2022-08-22T06:05:22.126Z,57.12
2022-08-22T06:07:50.428Z,56.77
2022-08-22T06:10:24.713Z,56.97
2022-08-22T06:13:12.962Z,56.60
2022-08-22T06:20:08.319Z,56.65
2022-08-22T06:22:46.791Z,57.26
2022-08-22T06:25:18.710Z,56.48
2022-08-22T06:27:47.877Z,56.90
2022-08-22T06:30:16.346Z,56.85
2022-08-22T06:33:00.140Z,56.76
2022-08-22T06:35:50.683Z,55.86
2022-08-22T06:38:19.779Z,55.25
2022-08-22T06:40:47.003Z,54.96
2022-08-22T06:43:13.806Z,54.84
2022-08-22T06:45:41.089Z,54.52
2022-08-22T06:53:05.369Z,54.79
2022-08-22T06:55:32.874Z,54.46
2022-08-22T06:58:03.988Z,54.48
2022-08-22T07:00:35.325Z,54.46
2022-08-22T07:03:20.255Z,54.53
2022-08-22T07:05:48.080Z,54.24
2022-08-22T07:08:19.803Z,54.06
2022-08-22T07:10:59.123Z,54.20
2022-08-22T07:13:28.276Z,54.02
2022-08-22T07:15:57.853Z,54.22
2022-08-22T07:18:26.886Z,53.55
2022-08-22T07:20:59.290Z,53.98
2022-08-22T07:23:40.409Z,53.81
2022-08-22T07:26:34.009Z,54.22
2022-08-22T07:29:05.056Z,53.84
2022-08-22T07:31:42.912Z,53.89
2022-08-22T07:34:23.049Z,53.43
2022-08-22T07:37:00.959Z,53.37
2022-08-22T07:39:39.674Z,53.65
2022-08-22T07:42:28.528Z,53.14
2022-08-22T07:45:07.768Z,52.68
2022-08-22T07:47:49.549Z,52.54
2022-08-22T07:50:24.939Z,52.32
2022-08-22T07:52:52.671Z,52.61
2022-08-22T07:55:22.787Z,52.56
2022-08-22T07:57:55.855Z,52.34
2022-08-22T08:00:25.143Z,52.44
2022-08-22T08:02:58.372Z,52.31
2022-08-22T08:05:28.362Z,52.13
2022-08-22T08:07:56.159Z,52.19
2022-08-22T08:10:27.635Z,51.68
2022-08-22T08:13:02.327Z,52.25
2022-08-22T08:15:31.901Z,52.14
2022-08-22T08:20:30.249Z,51.70
2022-08-22T08:22:57.773Z,51.87
2022-08-22T08:25:27.786Z,52.00
2022-08-22T08:28:13.214Z,52.22
2022-08-22T08:30:56.266Z,51.74
2022-08-22T08:33:26.944Z,51.89
2022-08-22T08:36:16.470Z,51.73
2022-08-22T08:39:17.191Z,51.58
2022-08-22T08:42:59.318Z,51.45
2022-08-22T08:54:43.512Z,50.97
2022-08-22T08:57:41.548Z,51.31
2022-08-22T09:00:50.556Z,51.75
2022-08-22T09:03:51.272Z,51.49
2022-08-22T09:06:39.250Z,51.23
2022-08-22T09:09:46.729Z,51.34
2022-08-22T09:12:25.375Z,51.37
2022-08-22T09:15:19.649Z,51.42
2022-08-22T09:18:18.407Z,51.41
2022-08-22T09:21:31.275Z,51.07
2022-08-22T09:24:16.834Z,51.30
2022-08-22T09:26:57.322Z,51.35
2022-08-22T09:29:55.147Z,51.19
2022-08-22T09:32:43.930Z,51.17
2022-08-22T09:35:19.247Z,50.95
2022-08-22T09:38:08.998Z,51.28
2022-08-22T09:40:54.877Z,51.41
2022-08-22T09:43:37.684Z,51.39
2022-08-22T09:46:32.264Z,51.20
2022-08-22T09:49:13.916Z,50.50
2022-08-22T09:52:14.428Z,50.58
2022-08-22T09:55:35.284Z,50.23
2022-08-22T09:58:25.882Z,49.80
2022-08-22T10:01:24.319Z,48.61
2022-08-22T10:04:07.090Z,48.84
2022-08-22T10:07:03.997Z,49.30
2022-08-22T10:09:57.351Z,48.92
2022-08-22T10:12:51.170Z,49.13
2022-08-22T10:15:35.819Z,48.69
2022-08-22T10:18:14.839Z,48.60
2022-08-22T10:21:20.363Z,47.28
2022-08-22T10:24:25.166Z,47.89
2022-08-22T10:27:02.279Z,47.97
2022-08-22T10:29:48.314Z,48.15
2022-08-22T10:32:14.896Z,46.98
2022-08-22T10:34:44.730Z,45.83
2022-08-22T10:37:39.525Z,45.86
2022-08-22T10:40:16.835Z,46.46
2022-08-22T10:43:28.894Z,46.46
2022-08-22T10:46:12.370Z,46.04
2022-08-22T10:48:46.327Z,45.94
2022-08-22T10:51:28.644Z,44.78
2022-08-22T10:54:32.640Z,44.15
2022-08-22T10:57:22.545Z,45.41
2022-08-22T10:59:52.434Z,45.52
2022-08-22T11:02:47.501Z,45.41
2022-08-22T11:05:30.350Z,45.61
2022-08-22T11:08:04.183Z,45.67
2022-08-22T11:11:07.661Z,45.19
2022-08-22T11:14:49.678Z,45.00
2022-08-22T11:17:40.750Z,44.29
2022-08-22T11:20:19.636Z,43.60
2022-08-22T11:23:11.800Z,42.98
2022-08-22T11:25:54.068Z,42.47
2022-08-22T11:28:25.575Z,42.60
2022-08-22T11:31:22.993Z,42.21
2022-08-22T11:34:08.566Z,40.91
2022-08-22T11:37:00.544Z,40.77
2022-08-22T11:39:56.379Z,40.76
2022-08-22T11:43:12.076Z,39.18
2022-08-22T11:45:51.012Z,40.43
2022-08-22T11:48:17.652Z,41.46
2022-08-22T11:50:55.538Z,40.20
2022-08-22T11:53:33.557Z,40.72
2022-08-22T11:56:24.780Z,37.99
2022-08-22T11:59:01.113Z,39.50
2022-08-22T12:01:34.201Z,40.16
2022-08-22T12:04:12.839Z,39.37
2022-08-22T12:07:01.021Z,39.11
2022-08-22T12:09:33.703Z,39.74
2022-08-22T12:12:20.167Z,39.88
2022-08-22T12:15:15.851Z,39.20
2022-08-22T12:18:07.141Z,39.37
2022-08-22T12:20:55.995Z,39.53
2022-08-22T12:23:55.570Z,39.87
2022-08-22T12:26:34.280Z,39.33
2022-08-22T12:29:45.061Z,39.12
2022-08-22T12:32:33.947Z,39.39
2022-08-22T12:35:39.942Z,39.54
2022-08-22T12:38:40.602Z,39.00
2022-08-22T12:41:11.635Z,38.60
2022-08-22T12:43:47.128Z,37.36
2022-08-22T12:46:37.806Z,38.24
2022-08-22T12:49:14.011Z,37.59
2022-08-22T12:52:12.110Z,37.12
2022-08-22T12:55:05.866Z,37.75
2022-08-22T12:57:40.367Z,36.68
2022-08-22T13:00:26.908Z,36.39
2022-08-22T13:02:59.272Z,37.29
2022-08-22T13:05:28.067Z,37.07
2022-08-22T13:08:08.015Z,36.29
2022-08-22T13:10:48.603Z,36.71
2022-08-22T13:13:31.358Z,36.86
2022-08-22T13:16:05.736Z,37.05
2022-08-22T13:18:37.820Z,36.81
2022-08-22T13:21:07.922Z,36.50
2022-08-22T13:23:46.468Z,35.69
2022-08-22T13:26:26.958Z,36.18
2022-08-22T13:29:25.052Z,35.93
2022-08-22T13:33:08.640Z,36.30
2022-08-22T13:35:45.614Z,36.88
2022-08-22T13:38:25.827Z,37.30
2022-08-22T13:40:54.754Z,36.71
2022-08-22T13:43:24.616Z,37.05
2022-08-22T13:45:57.739Z,37.10
2022-08-22T13:48:47.003Z,37.43
2022-08-22T13:51:21.189Z,37.58
2022-08-22T13:54:02.177Z,37.43
2022-08-22T13:56:39.259Z,37.52
2022-08-22T13:59:47.106Z,37.53
2022-08-22T14:02:18.471Z,37.71
2022-08-22T14:04:51.568Z,37.67
2022-08-22T14:07:30.103Z,37.41
2022-08-22T14:10:14.853Z,37.46
2022-08-22T14:13:11.545Z,37.48
2022-08-22T14:15:46.057Z,37.34
2022-08-22T14:18:30.417Z,36.98
2022-08-22T14:21:19.881Z,36.89
2022-08-22T14:23:53.915Z,36.34
2022-08-22T14:26:32.792Z,36.00
2022-08-22T14:29:07.570Z,36.51
2022-08-22T14:31:35.285Z,36.63
2022-08-22T14:34:10.158Z,36.39
2022-08-22T14:36:55.293Z,36.53
2022-08-22T14:39:26.599Z,36.22
2022-08-22T14:42:10.852Z,35.99
2022-08-22T14:44:44.978Z,35.71
2022-08-22T14:47:54.016Z,35.79
2022-08-22T14:50:30.366Z,35.95
2022-08-22T14:53:24.989Z,35.45
2022-08-22T14:56:21.582Z,35.80
2022-08-22T14:58:58.441Z,35.44
2022-08-22T15:01:32.625Z,35.51
2022-08-22T15:04:08.545Z,35.47
2022-08-22T15:06:38.924Z,34.91
2022-08-22T15:09:31.438Z,33.61
2022-08-22T15:11:59.106Z,34.30
2022-08-22T15:14:37.146Z,34.74
2022-08-22T15:17:08.903Z,35.02
2022-08-22T15:19:42.523Z,34.29
2022-08-22T15:22:25.683Z,34.23
2022-08-22T15:25:02.765Z,34.38
2022-08-22T15:27:31.807Z,34.59
2022-08-22T15:30:01.118Z,34.71
2022-08-22T15:32:32.501Z,34.83
2022-08-22T15:35:26.629Z,34.61
2022-08-22T15:38:30.537Z,34.89
2022-08-22T15:41:36.921Z,34.71
2022-08-22T15:44:32.196Z,34.86
2022-08-22T15:47:31.544Z,34.90
2022-08-22T15:50:09.351Z,34.84
2022-08-22T15:53:06.827Z,35.05
2022-08-22T15:55:35.406Z,34.87
2022-08-22T15:58:08.770Z,34.82
2022-08-22T16:00:45.506Z,35.23
2022-08-22T16:03:24.566Z,35.29
2022-08-22T16:05:55.777Z,35.02
2022-08-22T16:08:33.007Z,34.99
2022-08-22T16:11:02.690Z,35.26
2022-08-22T16:13:33.560Z,35.94
2022-08-22T16:16:23.684Z,36.54
2022-08-22T16:18:51.278Z,36.82
2022-08-22T16:21:23.921Z,37.03
2022-08-22T16:23:56.690Z,37.71
2022-08-22T16:26:29.306Z,37.59
2022-08-22T16:28:59.244Z,37.98
2022-08-22T16:31:44.333Z,37.48
2022-08-22T16:34:18.128Z,37.71
2022-08-22T16:37:03.257Z,37.89
2022-08-22T16:40:24.386Z,37.47
2022-08-22T16:43:18.502Z,37.86
2022-08-22T16:45:45.583Z,37.71
2022-08-22T16:48:27.369Z,37.65
2022-08-22T16:51:15.934Z,37.03
2022-08-22T16:54:02.619Z,36.76
2022-08-22T16:57:08.991Z,37.31
2022-08-22T16:59:43.362Z,36.67
2022-08-22T17:02:15.920Z,36.26
2022-08-22T17:05:19.942Z,36.18
2022-08-22T17:08:02.524Z,35.79
2022-08-22T17:10:43.575Z,35.86
2022-08-22T17:13:39.135Z,35.60
2022-08-22T17:16:17.297Z,35.74
2022-08-22T17:18:54.305Z,36.05
2022-08-22T17:21:40.349Z,36.05
2022-08-22T17:24:35.516Z,36.56
2022-08-22T17:27:31.108Z,37.05
2022-08-22T17:30:09.857Z,36.58
2022-08-22T17:33:10.683Z,36.54
2022-08-22T17:36:04.581Z,36.66
2022-08-22T17:39:15.902Z,36.48
2022-08-22T17:42:19.081Z,36.97
2022-08-22T17:44:56.898Z,37.38
2022-08-22T17:47:37.577Z,37.55
2022-08-22T17:50:14.222Z,37.41
2022-08-22T17:52:56.721Z,37.28
2022-08-22T17:55:31.662Z,37.26
2022-08-22T17:58:13.470Z,37.63
2022-08-22T18:01:13.989Z,38.37
2022-08-22T18:03:51.626Z,38.20
2022-08-22T18:06:22.850Z,38.32
2022-08-22T18:09:13.664Z,38.28
2022-08-22T18:12:07.278Z,38.54
2022-08-22T18:14:44.206Z,38.48
2022-08-22T18:17:21.082Z,38.53
2022-08-22T18:20:06.426Z,38.70
2022-08-22T18:22:39.862Z,38.59
2022-08-22T18:25:18.731Z,38.74
2022-08-22T18:27:55.973Z,38.49
2022-08-22T18:31:39.083Z,38.10
2022-08-22T18:34:33.686Z,38.32
2022-08-22T18:37:12.399Z,38.42
2022-08-22T18:43:31.814Z,38.64
2022-08-22T18:46:03.798Z,38.54
2022-08-22T18:48:59.270Z,38.33
2022-08-22T18:51:38.856Z,39.05
2022-08-22T18:54:05.518Z,39.44
2022-08-22T18:56:50.226Z,40.28
2022-08-22T18:59:49.078Z,40.93
2022-08-22T19:02:37.438Z,41.41
2022-08-22T19:05:18.993Z,40.61
2022-08-22T19:08:11.783Z,39.57
2022-08-22T19:10:53.944Z,39.26
2022-08-22T19:13:33.976Z,39.36
2022-08-22T19:16:25.511Z,38.87
2022-08-22T19:18:55.730Z,38.86
2022-08-22T19:21:51.582Z,39.78
2022-08-22T19:24:27.394Z,40.30
2022-08-22T19:27:18.759Z,40.40
2022-08-22T19:29:47.342Z,40.37
2022-08-22T19:32:49.490Z,40.40
2022-08-22T19:35:50.118Z,39.83
2022-08-22T19:38:53.598Z,42.40
2022-08-22T19:41:59.518Z,41.93
2022-08-22T19:44:37.678Z,42.13
2022-08-22T19:47:26.803Z,41.67
2022-08-22T19:50:17.925Z,40.77
2022-08-22T19:53:08.470Z,40.44
2022-08-22T19:55:37.834Z,40.40
2022-08-22T19:58:04.454Z,40.89
2022-08-22T20:01:06.450Z,41.53
2022-08-22T20:04:05.229Z,41.50
2022-08-22T20:06:45.991Z,41.18
2022-08-22T20:09:18.370Z,41.55
2022-08-22T20:12:15.137Z,41.72
2022-08-22T20:14:44.755Z,41.67
2022-08-22T20:17:39.557Z,42.59
2022-08-22T20:20:35.346Z,42.44
2022-08-22T20:23:08.375Z,42.71
2022-08-22T20:25:44.160Z,43.45
2022-08-22T20:28:31.344Z,43.29
2022-08-22T20:31:00.590Z,42.83
2022-08-22T20:33:31.734Z,42.77
2022-08-22T20:36:01.325Z,42.76
2022-08-22T20:38:56.382Z,42.59
2022-08-22T20:41:39.080Z,44.12
2022-08-22T20:44:12.322Z,44.43
2022-08-22T20:46:55.174Z,43.33
2022-08-22T20:49:28.685Z,43.76
2022-08-22T20:51:55.312Z,43.49
2022-08-22T20:54:24.341Z,43.32
2022-08-22T20:56:53.663Z,42.55
2022-08-22T20:59:37.561Z,43.45
2022-08-22T21:02:13.019Z,42.74
2022-08-22T21:04:49.351Z,42.58
2022-08-22T21:07:34.568Z,44.01
2022-08-22T21:10:37.614Z,43.71
2022-08-22T21:13:08.515Z,44.24
2022-08-22T21:15:41.697Z,44.22
2022-08-22T21:18:11.506Z,42.55
2022-08-22T21:20:38.835Z,43.36
2022-08-22T21:23:10.550Z,42.96
2022-08-22T21:26:21.348Z,43.94
2022-08-22T21:28:50.774Z,43.34
2022-08-22T21:31:21.163Z,42.64
2022-08-22T21:33:50.097Z,42.33
2022-08-22T21:36:20.407Z,43.46
2022-08-22T21:39:04.050Z,44.25
2022-08-22T21:41:30.751Z,43.11
2022-08-22T21:44:17.466Z,43.76
2022-08-22T21:46:44.278Z,43.32
2022-08-22T21:49:23.598Z,42.90
2022-08-22T21:51:51.026Z,42.52
2022-08-22T21:54:32.610Z,42.78
2022-08-22T21:57:11.110Z,42.63
2022-08-22T21:59:51.905Z,43.09
2022-08-22T22:02:40.920Z,43.07
2022-08-22T22:05:18.011Z,43.32
2022-08-22T22:07:46.390Z,43.02
2022-08-22T22:10:16.836Z,44.10
2022-08-22T22:12:45.560Z,44.07
2022-08-22T22:15:15.511Z,44.80
2022-08-22T22:17:42.151Z,44.42
2022-08-22T22:20:09.950Z,43.61
2022-08-22T22:22:36.991Z,43.31
2022-08-22T22:25:40.609Z,43.75
2022-08-22T22:28:00.122Z,44.08
2022-08-22T22:30:26.898Z,44.71
2022-08-22T22:32:53.642Z,44.82
2022-08-22T22:35:21.635Z,44.70
2022-08-22T22:37:48.414Z,44.83
2022-08-22T22:40:15.252Z,44.98
2022-08-22T22:42:42.703Z,44.89
2022-08-22T22:45:10.667Z,45.01
2022-08-22T22:47:37.940Z,45.02
2022-08-22T22:50:05.910Z,44.91
2022-08-22T22:52:32.625Z,44.94
2022-08-22T22:54:59.282Z,45.11
2022-08-22T22:57:26.362Z,45.31
2022-08-22T22:59:55.433Z,45.15
2022-08-22T23:02:23.017Z,45.44
2022-08-22T23:04:53.715Z,45.67
2022-08-22T23:07:21.553Z,45.61
2022-08-22T23:09:48.234Z,45.94
2022-08-22T23:12:14.984Z,45.79
2022-08-22T23:14:41.628Z,45.62
2022-08-22T23:17:08.347Z,45.66
2022-08-22T23:19:36.062Z,45.90
2022-08-22T23:22:03.007Z,46.17
2022-08-22T23:24:31.072Z,45.72
2022-08-22T23:26:57.933Z,44.64
2022-08-22T23:29:26.376Z,44.71
2022-08-22T23:31:54.695Z,45.33
2022-08-22T23:34:27.092Z,45.27
2022-08-22T23:36:55.502Z,45.33
2022-08-22T23:39:23.298Z,45.54
2022-08-22T23:41:50.825Z,45.96
2022-08-22T23:44:19.998Z,45.69
2022-08-22T23:46:46.781Z,45.74
2022-08-22T23:49:14.371Z,45.52
2022-08-22T23:51:41.463Z,45.74
2022-08-22T23:54:08.233Z,45.59
2022-08-22T23:56:43.057Z,44.55
2022-08-22T23:59:13.348Z,44.79
